sensor_id;sensor_type;location;lat;lon;timestamp;pressure;altitude;pressure_sealevel;temperature;humidity
30421;BME280;17218;54.070;10.012;2022-09-03T00:01:33;101642.56;;;16.07;100.00
30421;BME280;17218;54.070;10.012;2022-09-03T00:04:04;101636.38;;;16.11;100.00
30421;BME280;17218;54.070;10.012;2022-09-03T00:06:40;101646.13;;;16.03;100.00
30421;BME280;17218;54.070;10.012;2022-09-03T00:09:13;101639.16;;;16.03;100.00
30421;BME280;17218;54.070;10.012;2022-09-03T00:11:49;101637.31;;;16.08;100.00
30421;BME280;17218;54.070;10.012;2022-09-03T00:14:20;101631.03;;;16.19;100.00
30421;BME280;17218;54.070;10.012;2022-09-03T00:16:49;101637.00;;;16.27;100.00
30421;BME280;17218;54.070;10.012;2022-09-03T00:19:21;101633.38;;;16.36;100.00
30421;BME280;17218;54.070;10.012;2022-09-03T00:21:54;101642.00;;;16.41;100.00
30421;BME280;17218;54.070;10.012;2022-09-03T00:24:24;101637.75;;;16.34;100.00
30421;BME280;17218;54.070;10.012;2022-09-03T00:26:59;101637.00;;;16.29;100.00
30421;BME280;17218;54.070;10.012;2022-09-03T00:29:30;101639.56;;;16.30;100.00
30421;BME280;17218;54.070;10.012;2022-09-03T00:32:02;101628.53;;;16.11;100.00
30421;BME280;17218;54.070;10.012;2022-09-03T00:34:34;101633.69;;;16.17;100.00
30421;BME280;17218;54.070;10.012;2022-09-03T00:37:06;101630.09;;;16.23;100.00
30421;BME280;17218;54.070;10.012;2022-09-03T00:39:34;101627.53;;;16.21;100.00
30421;BME280;17218;54.070;10.012;2022-09-03T00:42:21;101636.22;;;16.22;100.00
30421;BME280;17218;54.070;10.012;2022-09-03T00:45:05;101627.53;;;16.21;100.00
30421;BME280;17218;54.070;10.012;2022-09-03T00:47:44;101624.84;;;16.25;100.00
30421;BME280;17218;54.070;10.012;2022-09-03T00:50:19;101629.28;;;16.21;100.00
30421;BME280;17218;54.070;10.012;2022-09-03T00:53:01;101636.94;;;16.32;100.00
30421;BME280;17218;54.070;10.012;2022-09-03T00:55:36;101623.06;;;16.27;100.00
30421;BME280;17218;54.070;10.012;2022-09-03T00:58:20;101624.13;;;16.15;100.00
30421;BME280;17218;54.070;10.012;2022-09-03T01:00:50;101628.50;;;16.16;100.00
30421;BME280;17218;54.070;10.012;2022-09-03T01:03:22;101629.47;;;16.08;100.00
30421;BME280;17218;54.070;10.012;2022-09-03T01:06:00;101626.91;;;16.07;100.00
30421;BME280;17218;54.070;10.012;2022-09-03T01:08:42;101621.56;;;16.12;100.00
30421;BME280;17218;54.070;10.012;2022-09-03T01:11:21;101625.06;;;16.12;100.00
30421;BME280;17218;54.070;10.012;2022-09-03T01:13:56;101618.13;;;16.09;100.00
30421;BME280;17218;54.070;10.012;2022-09-03T01:16:31;101625.09;;;16.11;100.00
30421;BME280;17218;54.070;10.012;2022-09-03T01:19:10;101625.84;;;16.17;100.00
30421;BME280;17218;54.070;10.012;2022-09-03T01:22:01;101618.97;;;16.12;100.00
30421;BME280;17218;54.070;10.012;2022-09-03T01:24:53;101615.28;;;16.22;100.00
30421;BME280;17218;54.070;10.012;2022-09-03T01:27:37;101620.38;;;16.31;100.00
30421;BME280;17218;54.070;10.012;2022-09-03T01:30:11;101620.53;;;16.22;100.00
30421;BME280;17218;54.070;10.012;2022-09-03T01:32:49;101625.72;;;16.25;100.00
30421;BME280;17218;54.070;10.012;2022-09-03T01:35:23;101622.28;;;16.21;100.00
30421;BME280;17218;54.070;10.012;2022-09-03T01:38:05;101615.44;;;16.13;100.00
30421;BME280;17218;54.070;10.012;2022-09-03T01:40:42;101619.00;;;16.10;100.00
30421;BME280;17218;54.070;10.012;2022-09-03T01:43:28;101625.81;;;16.19;100.00
30421;BME280;17218;54.070;10.012;2022-09-03T01:46:07;101622.28;;;16.21;100.00
30421;BME280;17218;54.070;10.012;2022-09-03T01:48:43;101619.69;;;16.20;100.00
30421;BME280;17218;54.070;10.012;2022-09-03T01:51:18;101620.84;;;16.03;100.00
30421;BME280;17218;54.070;10.012;2022-09-03T01:54:01;101623.31;;;16.11;100.00
30421;BME280;17218;54.070;10.012;2022-09-03T01:56:44;101620.63;;;16.17;100.00
30421;BME280;17218;54.070;10.012;2022-09-03T01:59:20;101618.13;;;16.09;100.00
30421;BME280;17218;54.070;10.012;2022-09-03T02:01:54;101621.66;;;16.07;100.00
30421;BME280;17218;54.070;10.012;2022-09-03T02:04:25;101619.34;;;15.86;100.00
30421;BME280;17218;54.070;10.012;2022-09-03T02:06:54;101613.34;;;15.78;100.00
30421;BME280;17218;54.070;10.012;2022-09-03T02:09:21;101613.28;;;15.84;100.00
30421;BME280;17218;54.070;10.012;2022-09-03T02:11:52;101621.19;;;15.78;100.00
30421;BME280;17218;54.070;10.012;2022-09-03T02:14:20;101611.66;;;15.77;100.00
30421;BME280;17218;54.070;10.012;2022-09-03T02:16:47;101618.75;;;15.67;100.00
30421;BME280;17218;54.070;10.012;2022-09-03T02:19:17;101615.16;;;15.74;100.00
30421;BME280;17218;54.070;10.012;2022-09-03T02:21:46;101613.47;;;15.70;100.00
30421;BME280;17218;54.070;10.012;2022-09-03T02:24:15;101607.47;;;15.64;100.00
30421;BME280;17218;54.070;10.012;2022-09-03T02:26:41;101603.06;;;15.67;100.00
30421;BME280;17218;54.070;10.012;2022-09-03T02:29:09;101607.53;;;15.60;100.00
30421;BME280;17218;54.070;10.012;2022-09-03T02:31:35;101606.69;;;15.58;100.00
30421;BME280;17218;54.070;10.012;2022-09-03T02:34:02;101602.41;;;15.53;100.00
30421;BME280;17218;54.070;10.012;2022-09-03T02:36:31;101599.72;;;15.57;100.00
30421;BME280;17218;54.070;10.012;2022-09-03T02:38:59;101596.44;;;15.43;100.00
30421;BME280;17218;54.070;10.012;2022-09-03T02:41:25;101596.59;;;15.32;100.00
30421;BME280;17218;54.070;10.012;2022-09-03T02:43:56;101599.16;;;15.35;100.00
30421;BME280;17218;54.070;10.012;2022-09-03T02:46:27;101590.34;;;15.44;100.00
30421;BME280;17218;54.070;10.012;2022-09-03T02:48:55;101598.16;;;15.45;100.00
30421;BME280;17218;54.070;10.012;2022-09-03T02:51:21;101598.25;;;15.37;100.00
30421;BME280;17218;54.070;10.012;2022-09-03T02:53:49;101594.94;;;15.26;100.00
30421;BME280;17218;54.070;10.012;2022-09-03T02:56:16;101595.78;;;15.28;100.00
30421;BME280;17218;54.070;10.012;2022-09-03T02:58:43;101594.09;;;15.22;100.00
30421;BME280;17218;54.070;10.012;2022-09-03T03:01:09;101596.81;;;15.16;100.00
30421;BME280;17218;54.070;10.012;2022-09-03T03:03:36;101588.06;;;15.19;100.00
30421;BME280;17218;54.070;10.012;2022-09-03T03:06:04;101599.56;;;15.03;100.00
30421;BME280;17218;54.070;10.012;2022-09-03T03:08:31;101594.34;;;15.05;100.00
30421;BME280;17218;54.070;10.012;2022-09-03T03:11:00;101596.00;;;15.11;100.00
30421;BME280;17218;54.070;10.012;2022-09-03T03:13:28;101599.66;;;14.97;100.00
30421;BME280;17218;54.070;10.012;2022-09-03T03:15:55;101597.13;;;14.89;100.00
30421;BME280;17218;54.070;10.012;2022-09-03T03:18:22;101601.50;;;14.87;100.00
30421;BME280;17218;54.070;10.012;2022-09-03T03:20:49;101599.75;;;14.88;100.00
30421;BME280;17218;54.070;10.012;2022-09-03T03:23:16;101604.16;;;14.81;100.00
30421;BME280;17218;54.070;10.012;2022-09-03T03:25:43;101604.16;;;14.81;100.00
30421;BME280;17218;54.070;10.012;2022-09-03T03:28:11;101605.09;;;14.75;100.00
30421;BME280;17218;54.070;10.012;2022-09-03T03:30:39;101602.53;;;14.69;100.00
30421;BME280;17218;54.070;10.012;2022-09-03T03:33:07;101598.19;;;14.66;100.00
30421;BME280;17218;54.070;10.012;2022-09-03T03:35:34;101596.69;;;14.47;100.00
30421;BME280;17218;54.070;10.012;2022-09-03T03:38:01;101605.41;;;14.44;100.00
30421;BME280;17218;54.070;10.012;2022-09-03T03:40:28;101606.28;;;14.43;100.00
30421;BME280;17218;54.070;10.012;2022-09-03T03:42:56;101606.25;;;14.45;100.00
30421;BME280;17218;54.070;10.012;2022-09-03T03:45:25;101613.22;;;14.44;100.00
30421;BME280;17218;54.070;10.012;2022-09-03T03:47:56;101608.91;;;14.41;100.00
30421;BME280;17218;54.070;10.012;2022-09-03T03:50:22;101615.94;;;14.33;100.00
30421;BME280;17218;54.070;10.012;2022-09-03T03:52:49;101617.72;;;14.26;100.00
30421;BME280;17218;54.070;10.012;2022-09-03T03:55:15;101624.63;;;14.30;100.00
30421;BME280;17218;54.070;10.012;2022-09-03T03:57:42;101608.06;;;14.36;100.00
30421;BME280;17218;54.070;10.012;2022-09-03T04:00:09;101620.38;;;14.20;100.00
30421;BME280;17218;54.070;10.012;2022-09-03T04:02:37;101613.38;;;14.25;100.00
30421;BME280;17218;54.070;10.012;2022-09-03T04:05:04;101604.72;;;14.23;100.00
30421;BME280;17218;54.070;10.012;2022-09-03T04:07:31;101622.94;;;14.25;100.00
30421;BME280;17218;54.070;10.012;2022-09-03T04:09:58;101620.31;;;14.26;100.00
30421;BME280;17218;54.070;10.012;2022-09-03T04:12:25;101622.94;;;14.25;100.00
30421;BME280;17218;54.070;10.012;2022-09-03T04:14:52;101630.78;;;14.22;100.00
30421;BME280;17218;54.070;10.012;2022-09-03T04:17:19;101628.16;;;14.23;100.00
30421;BME280;17218;54.070;10.012;2022-09-03T04:19:46;101630.75;;;14.26;100.00
30421;BME280;17218;54.070;10.012;2022-09-03T04:22:13;101631.66;;;14.24;100.00
30421;BME280;17218;54.070;10.012;2022-09-03T04:24:40;101630.78;;;14.22;100.00
30421;BME280;17218;54.070;10.012;2022-09-03T04:27:07;101630.81;;;14.20;100.00
30421;BME280;17218;54.070;10.012;2022-09-03T04:29:34;101629.09;;;14.16;100.00
30421;BME280;17218;54.070;10.012;2022-09-03T04:32:00;101627.34;;;14.18;100.00
30421;BME280;17218;54.070;10.012;2022-09-03T04:34:44;101630.81;;;14.17;100.00
30421;BME280;17218;54.070;10.012;2022-09-03T04:37:12;101639.50;;;14.17;100.00
30421;BME280;17218;54.070;10.012;2022-09-03T04:39:40;101634.34;;;14.13;100.00
30421;BME280;17218;54.070;10.012;2022-09-03T04:42:07;101642.16;;;14.14;100.00
30421;BME280;17218;54.070;10.012;2022-09-03T04:44:33;101628.28;;;14.11;100.00
30421;BME280;17218;54.070;10.012;2022-09-03T04:47:02;101634.41;;;14.05;100.00
30421;BME280;17218;54.070;10.012;2022-09-03T04:49:29;101642.19;;;14.06;100.00
30421;BME280;17218;54.070;10.012;2022-09-03T04:51:56;101633.47;;;14.12;100.00
30421;BME280;17218;54.070;10.012;2022-09-03T04:54:23;101633.50;;;14.11;100.00
30421;BME280;17218;54.070;10.012;2022-09-03T04:56:50;101635.25;;;14.09;100.00
30421;BME280;17218;54.070;10.012;2022-09-03T04:59:17;101637.78;;;14.13;100.00
30421;BME280;17218;54.070;10.012;2022-09-03T05:01:43;101634.31;;;14.16;100.00
30421;BME280;17218;54.070;10.012;2022-09-03T05:04:10;101642.94;;;14.23;100.00
30421;BME280;17218;54.070;10.012;2022-09-03T05:06:36;101640.34;;;14.21;100.00
30421;BME280;17218;54.070;10.012;2022-09-03T05:09:04;101648.94;;;14.33;100.00
30421;BME280;17218;54.070;10.012;2022-09-03T05:11:32;101644.59;;;14.31;100.00
30421;BME280;17218;54.070;10.012;2022-09-03T05:14:02;101644.66;;;14.25;100.00
30421;BME280;17218;54.070;10.012;2022-09-03T05:16:30;101636.72;;;14.38;100.00
30421;BME280;17218;54.070;10.012;2022-09-03T05:18:58;101651.47;;;14.42;100.00
30421;BME280;17218;54.070;10.012;2022-09-03T05:21:25;101646.25;;;14.42;100.00
30421;BME280;17218;54.070;10.012;2022-09-03T05:23:53;101661.06;;;14.38;100.00
30421;BME280;17218;54.070;10.012;2022-09-03T05:26:20;101641.03;;;14.43;100.00
30421;BME280;17218;54.070;10.012;2022-09-03T05:28:52;101664.44;;;14.51;100.00
30421;BME280;17218;54.070;10.012;2022-09-03T05:31:20;101647.81;;;14.60;100.00
30421;BME280;17218;54.070;10.012;2022-09-03T05:33:48;101649.50;;;14.66;100.00
30421;BME280;17218;54.070;10.012;2022-09-03T05:36:16;101648.59;;;14.72;100.00
30421;BME280;17218;54.070;10.012;2022-09-03T05:38:44;101651.31;;;14.61;100.00
30421;BME280;17218;54.070;10.012;2022-09-03T05:41:12;101643.41;;;14.67;100.00
30421;BME280;17218;54.070;10.012;2022-09-03T05:43:40;101647.72;;;14.71;100.00
30421;BME280;17218;54.070;10.012;2022-09-03T05:46:09;101649.38;;;14.82;100.00
30421;BME280;17218;54.070;10.012;2022-09-03T05:48:37;101637.91;;;14.97;100.00
30421;BME280;17218;54.070;10.012;2022-09-03T05:51:06;101646.47;;;15.08;100.00
30421;BME280;17218;54.070;10.012;2022-09-03T05:53:34;101649.94;;;15.10;100.00
30421;BME280;17218;54.070;10.012;2022-09-03T05:56:02;101638.47;;;15.22;100.00
30421;BME280;17218;54.070;10.012;2022-09-03T05:58:30;101631.50;;;15.24;100.00
30421;BME280;17218;54.070;10.012;2022-09-03T06:00:57;101637.44;;;15.36;100.00
30421;BME280;17218;54.070;10.012;2022-09-03T06:03:25;101643.53;;;15.35;100.00
30421;BME280;17218;54.070;10.012;2022-09-03T06:05:53;101645.94;;;15.50;100.00
30421;BME280;17218;54.070;10.012;2022-09-03T06:08:20;101643.28;;;15.57;100.00
30421;BME280;17218;54.070;10.012;2022-09-03T06:10:46;101642.31;;;15.61;100.00
30421;BME280;17218;54.070;10.012;2022-09-03T06:13:13;101643.16;;;15.63;100.00
30421;BME280;17218;54.070;10.012;2022-09-03T06:15:39;101646.56;;;15.68;100.00
30421;BME280;17218;54.070;10.012;2022-09-03T06:18:06;101646.41;;;15.81;100.00
30421;BME280;17218;54.070;10.012;2022-09-03T06:20:34;101640.25;;;15.85;100.00
30421;BME280;17218;54.070;10.012;2022-09-03T06:23:00;101648.38;;;15.65;100.00
30421;BME280;17218;54.070;10.012;2022-09-03T06:25:27;101642.28;;;15.66;100.00
30421;BME280;17218;54.070;10.012;2022-09-03T06:27:54;101647.25;;;15.81;100.00
30421;BME280;17218;54.070;10.012;2022-09-03T06:30:20;101652.47;;;15.83;100.00
30421;BME280;17218;54.070;10.012;2022-09-03T06:32:49;101642.97;;;15.79;100.00
30421;BME280;17218;54.070;10.012;2022-09-03T06:35:17;101642.09;;;15.78;100.00
30421;BME280;17218;54.070;10.012;2022-09-03T06:37:44;101642.19;;;15.70;100.00
30421;BME280;17218;54.070;10.012;2022-09-03T06:40:11;101643.81;;;15.78;100.00
30421;BME280;17218;54.070;10.012;2022-09-03T06:42:38;101647.28;;;15.80;100.00
30421;BME280;17218;54.070;10.012;2022-09-03T06:45:06;101642.31;;;15.61;100.00
30421;BME280;17218;54.070;10.012;2022-09-03T06:47:33;101645.06;;;15.52;100.00
30421;BME280;17218;54.070;10.012;2022-09-03T06:49:59;101644.06;;;15.62;100.00
30421;BME280;17218;54.070;10.012;2022-09-03T06:52:26;101646.69;;;15.59;100.00
30421;BME280;17218;54.070;10.012;2022-09-03T06:54:54;101650.94;;;15.69;100.00
30421;BME280;17218;54.070;10.012;2022-09-03T06:57:20;101650.72;;;15.83;100.00
30421;BME280;17218;54.070;10.012;2022-09-03T06:59:47;101653.09;;;16.01;100.00
30421;BME280;17218;54.070;10.012;2022-09-03T07:02:14;101659.06;;;16.11;100.00
30421;BME280;17218;54.070;10.012;2022-09-03T07:04:41;101659.91;;;16.11;100.00
30421;BME280;17218;54.070;10.012;2022-09-03T07:07:07;101660.84;;;16.08;100.00
30421;BME280;17218;54.070;10.012;2022-09-03T07:09:37;101659.03;;;16.12;100.00
30421;BME280;17218;54.070;10.012;2022-09-03T07:12:05;101654.38;;;16.30;100.00
30421;BME280;17218;54.070;10.012;2022-09-03T07:14:32;101657.63;;;16.44;100.00
30421;BME280;17218;54.070;10.012;2022-09-03T07:16:59;101650.63;;;16.47;100.00
30421;BME280;17218;54.070;10.012;2022-09-03T07:19:25;101660.09;;;16.52;100.00
30421;BME280;17218;54.070;10.012;2022-09-03T07:21:52;101652.06;;;16.63;100.00
30421;BME280;17218;54.070;10.012;2022-09-03T07:24:18;101655.03;;;16.90;100.00
30421;BME280;17218;54.070;10.012;2022-09-03T07:26:46;101652.22;;;17.01;100.00
30421;BME280;17218;54.070;10.012;2022-09-03T07:29:15;101646.59;;;17.23;100.00
30421;BME280;17218;54.070;10.012;2022-09-03T07:31:44;101639.44;;;17.32;100.00
30421;BME280;17218;54.070;10.012;2022-09-03T07:34:12;101654.03;;;17.44;100.00
30421;BME280;17218;54.070;10.012;2022-09-03T07:36:42;101645.84;;;17.58;100.00
30421;BME280;17218;54.070;10.012;2022-09-03T07:39:11;101642.88;;;17.75;100.00
30421;BME280;17218;54.070;10.012;2022-09-03T07:41:39;101645.44;;;17.76;100.00
30421;BME280;17218;54.070;10.012;2022-09-03T07:44:10;101643.50;;;17.85;100.00
30421;BME280;17218;54.070;10.012;2022-09-03T07:46:38;101648.63;;;17.90;100.00
30421;BME280;17218;54.070;10.012;2022-09-03T07:49:05;101648.47;;;17.96;100.00
30421;BME280;17218;54.070;10.012;2022-09-03T07:51:33;101652.41;;;18.16;100.00
30421;BME280;17218;54.070;10.012;2022-09-03T07:54:03;101649.56;;;18.25;96.18
30421;BME280;17218;54.070;10.012;2022-09-03T07:56:31;101651.81;;;18.39;97.77
30421;BME280;17218;54.070;10.012;2022-09-03T07:58:59;101653.25;;;18.51;93.14
30421;BME280;17218;54.070;10.012;2022-09-03T08:01:27;101639.59;;;18.73;93.51
30421;BME280;17218;54.070;10.012;2022-09-03T08:03:57;101644.78;;;18.75;86.17
30421;BME280;17218;54.070;10.012;2022-09-03T08:06:25;101642.22;;;18.73;91.46
30421;BME280;17218;54.070;10.012;2022-09-03T08:08:56;101635.31;;;18.69;86.43
30421;BME280;17218;54.070;10.012;2022-09-03T08:11:25;101638.72;;;18.73;86.12
30421;BME280;17218;54.070;10.012;2022-09-03T08:13:54;101638.03;;;18.66;88.11
30421;BME280;17218;54.070;10.012;2022-09-03T08:16:25;101637.75;;;18.75;87.51
30421;BME280;17218;54.070;10.012;2022-09-03T08:18:52;101632.34;;;18.81;82.08
30421;BME280;17218;54.070;10.012;2022-09-03T08:21:20;101627.53;;;18.66;76.57
30421;BME280;17218;54.070;10.012;2022-09-03T08:23:48;101629.59;;;18.54;80.13
30421;BME280;17218;54.070;10.012;2022-09-03T08:26:17;101632.06;;;18.59;80.52
30421;BME280;17218;54.070;10.012;2022-09-03T08:28:44;101638.19;;;18.59;80.95
30421;BME280;17218;54.070;10.012;2022-09-03T08:31:13;101627.53;;;18.66;80.31
30421;BME280;17218;54.070;10.012;2022-09-03T08:33:42;101627.81;;;18.87;76.40
30421;BME280;17218;54.070;10.012;2022-09-03T08:36:11;101634.44;;;19.00;73.59
30421;BME280;17218;54.070;10.012;2022-09-03T08:38:40;101631.41;;;19.16;71.95
30421;BME280;17218;54.070;10.012;2022-09-03T08:41:11;101623.84;;;19.35;71.93
30421;BME280;17218;54.070;10.012;2022-09-03T08:44:13;101632.81;;;19.57;68.49
30421;BME280;17218;54.070;10.012;2022-09-03T08:46:48;101624.84;;;19.60;63.39
30421;BME280;17218;54.070;10.012;2022-09-03T08:49:20;101620.84;;;19.76;62.12
30421;BME280;17218;54.070;10.012;2022-09-03T08:51:49;101626.03;;;19.78;62.42
30421;BME280;17218;54.070;10.012;2022-09-03T08:54:20;101620.66;;;19.81;63.54
30421;BME280;17218;54.070;10.012;2022-09-03T08:56:49;101634.63;;;19.83;59.16
30421;BME280;17218;54.070;10.012;2022-09-03T08:59:16;101625.38;;;19.98;61.78
30421;BME280;17218;54.070;10.012;2022-09-03T09:01:51;101627.78;;;20.06;59.72
30421;BME280;17218;54.070;10.012;2022-09-03T09:04:36;101618.06;;;20.08;59.08
30421;BME280;17218;54.070;10.012;2022-09-03T09:07:10;101632.53;;;20.22;60.88
30421;BME280;17218;54.070;10.012;2022-09-03T09:09:46;101625.13;;;20.33;58.56
30421;BME280;17218;54.070;10.012;2022-09-03T09:12:24;101629.47;;;20.34;57.37
30421;BME280;17218;54.070;10.012;2022-09-03T09:15:05;101621.63;;;20.33;58.03
30421;BME280;17218;54.070;10.012;2022-09-03T09:17:53;101624.94;;;20.38;56.52
30421;BME280;17218;54.070;10.012;2022-09-03T09:20:31;101616.53;;;20.54;56.45
30421;BME280;17218;54.070;10.012;2022-09-03T09:23:03;101609.66;;;20.49;55.60
30421;BME280;17218;54.070;10.012;2022-09-03T09:25:33;101625.19;;;20.57;54.19
30421;BME280;17218;54.070;10.012;2022-09-03T09:28:17;101621.22;;;20.69;55.34
30421;BME280;17218;54.070;10.012;2022-09-03T09:30:49;101611.00;;;20.85;55.80
30421;BME280;17218;54.070;10.012;2022-09-03T09:33:16;101605.69;;;20.87;53.09
30421;BME280;17218;54.070;10.012;2022-09-03T09:35:44;101615.97;;;20.95;52.64
30421;BME280;17218;54.070;10.012;2022-09-03T09:38:11;101614.88;;;21.01;53.69
30421;BME280;17218;54.070;10.012;2022-09-03T09:40:42;101617.63;;;20.97;54.20
30421;BME280;17218;54.070;10.012;2022-09-03T09:43:10;101607.06;;;20.97;54.78
30421;BME280;17218;54.070;10.012;2022-09-03T09:45:41;101613.94;;;21.26;53.24
30421;BME280;17218;54.070;10.012;2022-09-03T09:48:14;101608.88;;;21.19;52.09
30421;BME280;17218;54.070;10.012;2022-09-03T09:50:43;101614.72;;;21.28;51.83
30421;BME280;17218;54.070;10.012;2022-09-03T09:53:10;101608.47;;;21.30;50.30
30421;BME280;17218;54.070;10.012;2022-09-03T09:55:56;101601.50;;;21.29;51.48
30421;BME280;17218;54.070;10.012;2022-09-03T09:58:26;101605.66;;;21.35;52.33
30421;BME280;17218;54.070;10.012;2022-09-03T10:00:56;101594.56;;;21.49;49.64
30421;BME280;17218;54.070;10.012;2022-09-03T10:03:25;101604.81;;;21.35;48.54
30421;BME280;17218;54.070;10.012;2022-09-03T10:06:02;101600.28;;;21.38;48.87
30421;BME280;17218;54.070;10.012;2022-09-03T10:08:50;101582.84;;;21.34;48.81
30421;BME280;17218;54.070;10.012;2022-09-03T10:11:20;101597.88;;;21.54;47.40
30421;BME280;17218;54.070;10.012;2022-09-03T10:13:51;101595.25;;;21.32;46.95
30421;BME280;17218;54.070;10.012;2022-09-03T10:16:21;101595.72;;;21.42;47.94
30421;BME280;17218;54.070;10.012;2022-09-03T10:18:57;101583.03;;;21.74;48.06
30421;BME280;17218;54.070;10.012;2022-09-03T10:21:29;101583.56;;;22.05;47.78
30421;BME280;17218;54.070;10.012;2022-09-03T10:24:02;101599.91;;;22.13;47.01
30421;BME280;17218;54.070;10.012;2022-09-03T10:26:41;101582.84;;;21.79;47.00
30421;BME280;17218;54.070;10.012;2022-09-03T10:29:11;101589.28;;;21.72;46.96
30421;BME280;17218;54.070;10.012;2022-09-03T10:31:53;101586.72;;;21.70;47.69
30421;BME280;17218;54.070;10.012;2022-09-03T10:34:28;101588.06;;;21.58;47.47
30421;BME280;17218;54.070;10.012;2022-09-03T10:37:09;101586.00;;;21.66;46.82
30421;BME280;17218;54.070;10.012;2022-09-03T10:40:00;101589.88;;;21.57;47.76
30421;BME280;17218;54.070;10.012;2022-09-03T10:42:40;101587.16;;;21.82;48.59
30421;BME280;17218;54.070;10.012;2022-09-03T10:45:17;101586.41;;;21.78;47.34
30421;BME280;17218;54.070;10.012;2022-09-03T10:48:06;101592.13;;;22.10;47.99
30421;BME280;17218;54.070;10.012;2022-09-03T10:50:45;101582.69;;;22.46;42.77
30421;BME280;17218;54.070;10.012;2022-09-03T10:53:20;101581.41;;;22.55;40.33
30421;BME280;17218;54.070;10.012;2022-09-03T10:55:57;101576.47;;;22.68;41.49
30421;BME280;17218;54.070;10.012;2022-09-03T10:58:43;101570.25;;;22.88;39.78
30421;BME280;17218;54.070;10.012;2022-09-03T11:01:18;101565.09;;;23.42;40.24
30421;BME280;17218;54.070;10.012;2022-09-03T11:03:47;101558.00;;;23.24;39.02
30421;BME280;17218;54.070;10.012;2022-09-03T11:06:20;101557.59;;;23.15;39.24
30421;BME280;17218;54.070;10.012;2022-09-03T11:08:53;101555.91;;;23.51;40.70
30421;BME280;17218;54.070;10.012;2022-09-03T11:11:28;101559.19;;;23.91;38.12
30421;BME280;17218;54.070;10.012;2022-09-03T11:14:02;101548.50;;;24.28;37.19
30421;BME280;17218;54.070;10.012;2022-09-03T11:16:35;101551.81;;;23.98;36.59
30421;BME280;17218;54.070;10.012;2022-09-03T11:19:05;101552.84;;;23.41;37.60
30421;BME280;17218;54.070;10.012;2022-09-03T11:21:36;101557.59;;;22.95;39.08
30421;BME280;17218;54.070;10.012;2022-09-03T11:24:11;101559.97;;;22.63;38.97
30421;BME280;17218;54.070;10.012;2022-09-03T11:26:40;101545.63;;;23.07;38.12
30421;BME280;17218;54.070;10.012;2022-09-03T11:29:13;101542.56;;;23.34;36.68
30421;BME280;17218;54.070;10.012;2022-09-03T11:31:55;101552.63;;;24.50;35.97
30421;BME280;17218;54.070;10.012;2022-09-03T11:34:30;101532.47;;;24.98;34.83
30421;BME280;17218;54.070;10.012;2022-09-03T11:37:15;101534.13;;;25.62;33.70
30421;BME280;17218;54.070;10.012;2022-09-03T11:39:43;101538.50;;;26.52;31.34
30421;BME280;17218;54.070;10.012;2022-09-03T11:42:25;101531.50;;;26.51;32.36
30421;BME280;17218;54.070;10.012;2022-09-03T11:44:59;101526.13;;;25.78;32.37
30421;BME280;17218;54.070;10.012;2022-09-03T11:50:21;101522.09;;;25.25;34.15
30421;BME280;17218;54.070;10.012;2022-09-03T11:52:50;101516.53;;;27.33;31.21
30421;BME280;17218;54.070;10.012;2022-09-03T11:55:25;101514.75;;;29.62;29.45
30421;BME280;17218;54.070;10.012;2022-09-03T11:57:54;101507.47;;;29.76;27.72
30421;BME280;17218;54.070;10.012;2022-09-03T12:00:22;101506.16;;;30.95;27.09
30421;BME280;17218;54.070;10.012;2022-09-03T12:02:53;101500.44;;;32.17;25.07
30421;BME280;17218;54.070;10.012;2022-09-03T12:05:26;101491.25;;;33.20;23.42
30421;BME280;17218;54.070;10.012;2022-09-03T12:08:08;101496.97;;;32.36;23.87
30421;BME280;17218;54.070;10.012;2022-09-03T12:10:47;101500.94;;;30.93;25.59
30421;BME280;17218;54.070;10.012;2022-09-03T12:13:32;101499.63;;;28.89;26.24
30421;BME280;17218;54.070;10.012;2022-09-03T12:16:17;101499.47;;;29.87;27.04
30421;BME280;17218;54.070;10.012;2022-09-03T12:18:48;101487.25;;;31.29;26.02
30421;BME280;17218;54.070;10.012;2022-09-03T12:21:17;101480.47;;;32.31;24.75
30421;BME280;17218;54.070;10.012;2022-09-03T12:23:47;101482.44;;;33.67;24.26
30421;BME280;17218;54.070;10.012;2022-09-03T12:26:15;101487.22;;;31.94;23.25
30421;BME280;17218;54.070;10.012;2022-09-03T12:28:46;101497.28;;;30.39;25.42
30421;BME280;17218;54.070;10.012;2022-09-03T12:31:17;101480.16;;;31.61;24.89
30421;BME280;17218;54.070;10.012;2022-09-03T12:33:48;101484.66;;;31.92;24.96
30421;BME280;17218;54.070;10.012;2022-09-03T12:36:16;101478.41;;;30.96;25.48
30421;BME280;17218;54.070;10.012;2022-09-03T12:38:43;101479.09;;;32.66;24.50
30421;BME280;17218;54.070;10.012;2022-09-03T12:41:32;101472.91;;;34.58;21.82
30421;BME280;17218;54.070;10.012;2022-09-03T12:43:59;101467.13;;;36.56;20.83
30421;BME280;17218;54.070;10.012;2022-09-03T12:46:29;101472.19;;;36.59;20.54
30421;BME280;17218;54.070;10.012;2022-09-03T12:48:57;101465.94;;;37.25;20.07
30421;BME280;17218;54.070;10.012;2022-09-03T12:51:31;101467.03;;;38.60;18.90
30421;BME280;17218;54.070;10.012;2022-09-03T12:53:59;101464.28;;;38.45;18.70
30421;BME280;17218;54.070;10.012;2022-09-03T12:56:27;101461.81;;;39.20;17.89